METAR Data
IDs: Format: Raw Decoded Include TAF

Data at: 0235 UTC 24 Jun 2021

METAR for:K4I3 (Mount Vernon/Knox Cn, OH, US)
Text:K4I3 240215Z AUTO 14004KT 10SM CLR 18/11 A3021 RMK
Temperature: 18.0°C ( 64°F)
Dewpoint: 11.0°C ( 52°F) [RH = 64%]
Pressure (altimeter):30.21 inches Hg (1023.1 mb)
Winds:from the SE (140 degrees) at 5 MPH (4 knots; 2.1 m/s)
Visibility:10 or more sm (16+ km)
Ceiling:at least 12,000 feet AGL
Clouds:sky clear below 12,000 feet AGL